Humidity-temperature Sensor

Selected Measurement Type: Relative Humidity

 
Relative Humidity [%]     6 entries per hour
Showing data from 3/29/2015 (00:00:00 Z) to 3/26/2015 (00:01:00 Z)
Previous Next [ Day | 3-Days | 7-Days ]
First Last
Prev [ Day | 3-Days | 7-Days ] Next
First Last

Start Time:     :
End Time:     :     
Time (in GMT) :00 :50 :40 :30 :20 :10
Previous Next [ Day | 3-Days | 7-Days ]
First Last
Prev [ Day | 3-Days | 7-Days ] Next
First Last


123 => good data
MM => data is determined as missing
-- => data not received/configured
Back to Top Back to Top
3/29/2015 00:00 to 23:10 76.61 77.79 78.08 78.46 79.16 79.25
3/28/2015 23:00 to 22:10 79.68 79.75 79.37 79.41 80.06 80.12
3/28/2015 22:00 to 21:10 80.22 80.58 81.18 81.55 80.85 80.99
3/28/2015 21:00 to 20:10 80.47 80.16 79.60 80.35 80.56 80.31
3/28/2015 20:00 to 19:10 80.72 80.97 80.31 80.56 80.54 81.16
3/28/2015 19:00 to 18:10 81.08 81.68 81.55 81.16 81.62 80.49
3/28/2015 18:00 to 17:10 78.81 78.17 78.23 79.14 77.90 78.98
3/28/2015 17:00 to 16:10 78.29 79.64 80.06 80.70 79.89 80.70
3/28/2015 16:00 to 15:10 80.72 80.58 81.28 81.20 81.20 80.68
3/28/2015 15:00 to 14:10 81.22 81.08 81.18 81.47 81.26 80.56
3/28/2015 14:00 to 13:10 80.52 80.33 79.73 80.20 79.50 79.06
3/28/2015 13:00 to 12:10 79.06 79.10 79.02 79.14 78.96 78.98
3/28/2015 12:00 to 11:10 78.54 79.04 78.69 78.64 78.69 78.60
3/28/2015 11:00 to 10:10 77.90 77.23 77.48 78.37 78.71 78.10
3/28/2015 10:00 to 9:10 78.17 77.44 78.81 77.92 77.56 77.65
3/28/2015 09:00 to 8:10 77.79 77.50 76.77 77.38 77.98 78.56
3/28/2015 08:00 to 7:10 77.40 78.02 78.64 78.46 78.31 78.73
3/28/2015 07:00 to 6:10 78.75 78.08 77.73 77.23 76.98 76.98
3/28/2015 06:00 to 5:10 76.46 76.32 76.48 75.80 76.21 75.51
3/28/2015 05:00 to 4:10 75.71 76.67 75.42 75.17 75.03 74.63
3/28/2015 04:00 to 3:10 74.15 74.24 73.90 73.05 73.30 72.55
3/28/2015 03:00 to 2:10 74.59 75.09 75.98 76.19 74.94 73.18
3/28/2015 02:00 to 1:10 70.89 72.01 71.08 72.14 72.20 72.28
3/28/2015 01:00 to 0:10 72.49 72.03 72.18 72.43 71.54 70.54
3/28/2015 00:00 to 23:10 71.74 72.39 71.85 71.33 72.35 72.97
3/27/2015 23:00 to 22:10 73.39 72.80 72.78 71.58 71.70 73.41
3/27/2015 22:00 to 21:10 73.11 73.97 74.13 74.49 74.32 73.76
3/27/2015 21:00 to 20:10 74.72 75.44 75.28 75.67 76.13 76.73
3/27/2015 20:00 to 19:10 74.11 75.26 75.36 75.48 75.55 75.32
3/27/2015 19:00 to 18:10 75.90 75.24 75.82 75.61 75.38 73.55
3/27/2015 18:00 to 17:10 76.15 76.19 75.34 76.61 77.09 76.42
3/27/2015 17:00 to 16:10 76.50 76.96 77.29 75.76 75.69 75.76
3/27/2015 16:00 to 15:10 78.12 78.10 77.25 78.04 78.31 76.86
3/27/2015 15:00 to 14:10 78.54 79.27 78.64 78.21 78.02 78.54
3/27/2015 14:00 to 13:10 77.04 77.52 77.92 78.42 78.77 79.37
3/27/2015 13:00 to 12:10 79.02 78.98 79.16 77.21 76.96 78.44
3/27/2015 12:00 to 11:10 77.42 77.67 79.50 80.20 78.98 78.83
3/27/2015 11:00 to 10:10 77.92 77.19 78.12 76.71 78.08 77.96
3/27/2015 10:00 to 9:10 77.50 75.71 76.25 76.61 77.75 76.07
3/27/2015 09:00 to 8:10 75.98 75.61 76.36 76.61 76.27 75.17
3/27/2015 08:00 to 7:10 75.57 74.47 74.13 76.75 74.76 76.05
3/27/2015 07:00 to 6:10 77.31 76.92 76.25 75.84 76.71 75.61
3/27/2015 06:00 to 5:10 76.75 75.92 76.67 75.13 74.38 76.73
3/27/2015 05:00 to 4:10 77.04 74.80 74.63 73.86 74.61 74.26
3/27/2015 04:00 to 3:10 75.40 75.15 75.28 75.11 73.88 75.19
3/27/2015 03:00 to 2:10 75.59 76.61 75.09 74.88 73.30 73.26
3/27/2015 02:00 to 1:10 72.76 72.24 72.35 72.05 72.87 72.14
3/27/2015 01:00 to 0:10 71.06 71.85 72.22 71.06 71.24 70.87
3/27/2015 00:00 to 23:10 72.30 72.51 73.18 73.18 73.09 73.11
3/26/2015 23:00 to 22:10 73.09 72.37 72.93 73.09 73.61 73.36
3/26/2015 22:00 to 21:10 73.30 73.09 72.87 74.69 73.93 73.14
3/26/2015 21:00 to 20:10 74.28 74.42 73.99 74.34 73.99 73.93
3/26/2015 20:00 to 19:10 73.97 74.01 73.24 73.74 73.26 74.69
3/26/2015 19:00 to 18:10 74.03 73.09 73.03 73.63 74.07 74.34
3/26/2015 18:00 to 17:10 73.07 72.12 70.31 73.05 70.91 69.58
3/26/2015 17:00 to 16:10 69.35 70.87 70.20 71.20 72.20 70.52
3/26/2015 16:00 to 15:10 71.74 72.74 72.62 72.53 73.18 71.24
3/26/2015 15:00 to 14:10 73.22 73.49 73.24 74.22 73.80 75.44
3/26/2015 14:00 to 13:10 73.18 73.76 72.97 74.42 73.90 73.66
3/26/2015 13:00 to 12:10 74.76 73.99 74.26 74.45 75.65 75.98
3/26/2015 12:00 to 11:10 74.94 76.69 76.15 75.78 76.54 75.88
3/26/2015 11:00 to 10:10 -- -- -- -- -- --
3/26/2015 10:00 to 9:10 76.96 77.65 75.38 77.44 76.27 74.51
3/26/2015 09:00 to 8:10 74.80 75.09 77.13 78.40 78.91 76.63
3/26/2015 08:00 to 7:10 78.33 79.21 78.25 78.27 78.31 78.21
3/26/2015 07:00 to 6:10 78.00 78.83 77.79 77.61 76.61 77.21
3/26/2015 06:00 to 5:10 77.13 76.42 76.27 77.50 78.75 78.42
3/26/2015 05:00 to 4:10 77.23 78.98 78.56 78.69 77.67 77.00
3/26/2015 04:00 to 3:10 79.12 77.09 76.07 77.36 76.82 77.13
3/26/2015 03:00 to 2:10 77.83 78.42 77.77 77.69 77.58 76.03
3/26/2015 02:00 to 1:10 75.09 76.00 74.90 75.01 75.30 76.09
3/26/2015 01:00 to 0:10 78.54 76.86 77.00 77.36 75.80 75.94